sensor_id;sensor_type;location;lat;lon;timestamp;temperature;humidity
18779;DHT22;9518;51.720;14.384;2022-12-31T00:01:26;7.60;33.80
18779;DHT22;9518;51.720;14.384;2022-12-31T00:03:56;7.70;17.00
18779;DHT22;9518;51.720;14.384;2022-12-31T00:06:33;7.70;19.60
18779;DHT22;9518;51.720;14.384;2022-12-31T00:09:03;7.60;5.60
18779;DHT22;9518;51.720;14.384;2022-12-31T00:11:30;7.60;30.30
18779;DHT22;9518;51.720;14.384;2022-12-31T00:13:58;7.60;2.30
18779;DHT22;9518;51.720;14.384;2022-12-31T00:16:26;7.50;1.00
18779;DHT22;9518;51.720;14.384;2022-12-31T00:18:56;7.50;3.40
18779;DHT22;9518;51.720;14.384;2022-12-31T00:21:25;7.40;22.50
18779;DHT22;9518;51.720;14.384;2022-12-31T00:23:52;7.30;50.50
18779;DHT22;9518;51.720;14.384;2022-12-31T00:26:21;7.50;55.90
18779;DHT22;9518;51.720;14.384;2022-12-31T00:28:50;7.50;16.70
18779;DHT22;9518;51.720;14.384;2022-12-31T00:31:18;7.40;1.00
18779;DHT22;9518;51.720;14.384;2022-12-31T00:33:45;7.40;1.00
18779;DHT22;9518;51.720;14.384;2022-12-31T00:36:15;7.50;4.50
18779;DHT22;9518;51.720;14.384;2022-12-31T00:38:44;7.50;1.00
18779;DHT22;9518;51.720;14.384;2022-12-31T00:41:12;7.40;1.00
18779;DHT22;9518;51.720;14.384;2022-12-31T00:43:40;7.50;1.00
18779;DHT22;9518;51.720;14.384;2022-12-31T00:46:08;7.50;1.00
18779;DHT22;9518;51.720;14.384;2022-12-31T00:48:35;7.50;1.00
18779;DHT22;9518;51.720;14.384;2022-12-31T00:51:03;7.50;1.00
18779;DHT22;9518;51.720;14.384;2022-12-31T00:53:32;7.50;1.00
18779;DHT22;9518;51.720;14.384;2022-12-31T00:56:00;7.60;1.00
18779;DHT22;9518;51.720;14.384;2022-12-31T00:58:28;7.60;1.00
18779;DHT22;9518;51.720;14.384;2022-12-31T01:00:56;7.50;1.00
18779;DHT22;9518;51.720;14.384;2022-12-31T01:03:23;7.50;1.00
18779;DHT22;9518;51.720;14.384;2022-12-31T01:05:50;7.40;1.00
18779;DHT22;9518;51.720;14.384;2022-12-31T01:08:17;7.40;1.00
18779;DHT22;9518;51.720;14.384;2022-12-31T01:10:48;7.40;1.00
18779;DHT22;9518;51.720;14.384;2022-12-31T01:13:33;7.50;1.00
18779;DHT22;9518;51.720;14.384;2022-12-31T01:16:06;7.70;1.00
18779;DHT22;9518;51.720;14.384;2022-12-31T01:18:33;7.80;1.00
18779;DHT22;9518;51.720;14.384;2022-12-31T01:21:01;7.80;1.00
18779;DHT22;9518;51.720;14.384;2022-12-31T01:23:28;7.70;1.00
18779;DHT22;9518;51.720;14.384;2022-12-31T01:25:59;7.70;1.00
18779;DHT22;9518;51.720;14.384;2022-12-31T01:28:26;7.60;1.00
18779;DHT22;9518;51.720;14.384;2022-12-31T01:30:53;7.80;1.00
18779;DHT22;9518;51.720;14.384;2022-12-31T01:33:20;7.90;1.00
18779;DHT22;9518;51.720;14.384;2022-12-31T01:35:47;8.00;1.00
18779;DHT22;9518;51.720;14.384;2022-12-31T01:38:14;8.10;1.00
18779;DHT22;9518;51.720;14.384;2022-12-31T01:40:41;8.20;1.00
18779;DHT22;9518;51.720;14.384;2022-12-31T01:43:14;8.30;1.00
18779;DHT22;9518;51.720;14.384;2022-12-31T01:45:43;8.40;1.00
18779;DHT22;9518;51.720;14.384;2022-12-31T01:48:14;8.50;1.00
18779;DHT22;9518;51.720;14.384;2022-12-31T01:50:45;8.60;99.90
18779;DHT22;9518;51.720;14.384;2022-12-31T01:53:13;8.60;99.90
18779;DHT22;9518;51.720;14.384;2022-12-31T01:55:45;8.70;1.00
18779;DHT22;9518;51.720;14.384;2022-12-31T01:58:16;8.70;1.00
18779;DHT22;9518;51.720;14.384;2022-12-31T02:00:44;8.80;1.00
18779;DHT22;9518;51.720;14.384;2022-12-31T02:03:12;8.80;99.90
18779;DHT22;9518;51.720;14.384;2022-12-31T02:05:44;8.90;99.90
18779;DHT22;9518;51.720;14.384;2022-12-31T02:08:13;9.10;1.00
18779;DHT22;9518;51.720;14.384;2022-12-31T02:10:40;9.10;1.00
18779;DHT22;9518;51.720;14.384;2022-12-31T02:13:07;9.00;1.00
18779;DHT22;9518;51.720;14.384;2022-12-31T02:15:46;8.80;1.00
18779;DHT22;9518;51.720;14.384;2022-12-31T02:18:21;8.80;99.90
18779;DHT22;9518;51.720;14.384;2022-12-31T02:21:34;8.90;1.00
18779;DHT22;9518;51.720;14.384;2022-12-31T02:24:39;8.80;99.90
18779;DHT22;9518;51.720;14.384;2022-12-31T02:27:11;8.80;99.90
18779;DHT22;9518;51.720;14.384;2022-12-31T02:30:08;8.70;1.00
18779;DHT22;9518;51.720;14.384;2022-12-31T02:32:53;8.80;50.10
18779;DHT22;9518;51.720;14.384;2022-12-31T02:35:28;8.70;1.00
18779;DHT22;9518;51.720;14.384;2022-12-31T02:37:59;8.80;1.00
18779;DHT22;9518;51.720;14.384;2022-12-31T02:40:28;8.80;99.90
18779;DHT22;9518;51.720;14.384;2022-12-31T02:42:55;9.00;12.00
18779;DHT22;9518;51.720;14.384;2022-12-31T02:45:27;9.00;1.00
18779;DHT22;9518;51.720;14.384;2022-12-31T02:48:18;9.10;1.00
18779;DHT22;9518;51.720;14.384;2022-12-31T02:50:54;9.10;1.00
18779;DHT22;9518;51.720;14.384;2022-12-31T02:53:39;9.10;1.00
18779;DHT22;9518;51.720;14.384;2022-12-31T02:56:15;9.10;1.00
18779;DHT22;9518;51.720;14.384;2022-12-31T02:58:52;9.10;1.00
18779;DHT22;9518;51.720;14.384;2022-12-31T03:01:43;9.10;99.90
18779;DHT22;9518;51.720;14.384;2022-12-31T03:04:31;9.20;18.40
18779;DHT22;9518;51.720;14.384;2022-12-31T03:07:01;9.30;1.00
18779;DHT22;9518;51.720;14.384;2022-12-31T03:09:29;9.30;99.90
18779;DHT22;9518;51.720;14.384;2022-12-31T03:11:56;9.40;1.00
18779;DHT22;9518;51.720;14.384;2022-12-31T03:14:40;9.40;1.00
18779;DHT22;9518;51.720;14.384;2022-12-31T03:17:08;9.40;99.90
18779;DHT22;9518;51.720;14.384;2022-12-31T03:19:36;9.30;99.90
18779;DHT22;9518;51.720;14.384;2022-12-31T03:22:20;9.30;1.00
18779;DHT22;9518;51.720;14.384;2022-12-31T03:24:54;9.20;1.00
18779;DHT22;9518;51.720;14.384;2022-12-31T03:27:38;9.30;1.00
18779;DHT22;9518;51.720;14.384;2022-12-31T03:30:07;9.30;99.90
18779;DHT22;9518;51.720;14.384;2022-12-31T03:32:35;9.30;1.00
18779;DHT22;9518;51.720;14.384;2022-12-31T03:35:03;9.30;51.40
18779;DHT22;9518;51.720;14.384;2022-12-31T03:37:30;9.30;1.00
18779;DHT22;9518;51.720;14.384;2022-12-31T03:39:57;9.40;99.90
18779;DHT22;9518;51.720;14.384;2022-12-31T03:42:24;9.40;1.00
18779;DHT22;9518;51.720;14.384;2022-12-31T03:44:51;9.40;1.00
18779;DHT22;9518;51.720;14.384;2022-12-31T03:47:18;9.50;1.00
18779;DHT22;9518;51.720;14.384;2022-12-31T03:49:46;9.50;1.00
18779;DHT22;9518;51.720;14.384;2022-12-31T03:52:13;9.60;99.90
18779;DHT22;9518;51.720;14.384;2022-12-31T03:54:40;9.60;1.00
18779;DHT22;9518;51.720;14.384;2022-12-31T03:57:07;9.70;1.00
18779;DHT22;9518;51.720;14.384;2022-12-31T03:59:34;9.70;99.90
18779;DHT22;9518;51.720;14.384;2022-12-31T04:02:02;9.80;1.00
18779;DHT22;9518;51.720;14.384;2022-12-31T04:04:29;9.80;1.00
18779;DHT22;9518;51.720;14.384;2022-12-31T04:06:58;9.80;1.00
18779;DHT22;9518;51.720;14.384;2022-12-31T04:09:25;9.90;99.90
18779;DHT22;9518;51.720;14.384;2022-12-31T04:11:52;10.00;1.00
18779;DHT22;9518;51.720;14.384;2022-12-31T04:14:19;10.10;1.00
18779;DHT22;9518;51.720;14.384;2022-12-31T04:16:52;10.10;1.00
18779;DHT22;9518;51.720;14.384;2022-12-31T04:19:19;10.10;1.00
18779;DHT22;9518;51.720;14.384;2022-12-31T04:21:46;10.10;1.00
18779;DHT22;9518;51.720;14.384;2022-12-31T04:24:14;10.10;1.00
18779;DHT22;9518;51.720;14.384;2022-12-31T04:26:44;10.20;1.00
18779;DHT22;9518;51.720;14.384;2022-12-31T04:29:11;10.20;99.90
18779;DHT22;9518;51.720;14.384;2022-12-31T04:31:38;10.20;1.00
18779;DHT22;9518;51.720;14.384;2022-12-31T04:34:05;10.20;1.00
18779;DHT22;9518;51.720;14.384;2022-12-31T04:36:32;10.20;1.00
18779;DHT22;9518;51.720;14.384;2022-12-31T04:38:59;10.20;99.90
18779;DHT22;9518;51.720;14.384;2022-12-31T04:41:28;10.10;1.00
18779;DHT22;9518;51.720;14.384;2022-12-31T04:43:57;10.10;1.00
18779;DHT22;9518;51.720;14.384;2022-12-31T04:46:27;10.10;1.00
18779;DHT22;9518;51.720;14.384;2022-12-31T04:48:56;10.10;1.00
18779;DHT22;9518;51.720;14.384;2022-12-31T04:51:25;10.10;99.90
18779;DHT22;9518;51.720;14.384;2022-12-31T04:53:52;10.10;99.90
18779;DHT22;9518;51.720;14.384;2022-12-31T04:56:20;10.10;1.00
18779;DHT22;9518;51.720;14.384;2022-12-31T04:58:51;10.10;1.00
18779;DHT22;9518;51.720;14.384;2022-12-31T05:01:18;10.30;99.90
18779;DHT22;9518;51.720;14.384;2022-12-31T05:03:45;10.30;99.90
18779;DHT22;9518;51.720;14.384;2022-12-31T05:06:20;10.30;1.00
18779;DHT22;9518;51.720;14.384;2022-12-31T05:08:48;10.40;1.00
18779;DHT22;9518;51.720;14.384;2022-12-31T05:11:17;10.40;1.00
18779;DHT22;9518;51.720;14.384;2022-12-31T05:13:44;10.40;1.00
18779;DHT22;9518;51.720;14.384;2022-12-31T05:16:13;10.50;1.00
18779;DHT22;9518;51.720;14.384;2022-12-31T05:18:40;10.60;99.90
18779;DHT22;9518;51.720;14.384;2022-12-31T05:21:07;10.60;99.90
18779;DHT22;9518;51.720;14.384;2022-12-31T05:23:34;10.70;1.00
18779;DHT22;9518;51.720;14.384;2022-12-31T05:26:01;10.70;1.00
18779;DHT22;9518;51.720;14.384;2022-12-31T05:28:28;10.70;1.00
18779;DHT22;9518;51.720;14.384;2022-12-31T05:31:00;10.80;1.00
18779;DHT22;9518;51.720;14.384;2022-12-31T05:33:28;10.90;1.00
18779;DHT22;9518;51.720;14.384;2022-12-31T05:35:55;11.00;1.00
18779;DHT22;9518;51.720;14.384;2022-12-31T05:38:23;11.00;1.00
18779;DHT22;9518;51.720;14.384;2022-12-31T05:40:59;10.90;99.90
18779;DHT22;9518;51.720;14.384;2022-12-31T05:43:26;10.90;1.00
18779;DHT22;9518;51.720;14.384;2022-12-31T05:45:53;10.90;99.90
18779;DHT22;9518;51.720;14.384;2022-12-31T05:48:20;10.80;1.00
18779;DHT22;9518;51.720;14.384;2022-12-31T05:50:49;10.80;99.90
18779;DHT22;9518;51.720;14.384;2022-12-31T05:53:16;10.70;1.00
18779;DHT22;9518;51.720;14.384;2022-12-31T05:55:50;10.70;1.00
18779;DHT22;9518;51.720;14.384;2022-12-31T05:58:17;10.70;99.90
18779;DHT22;9518;51.720;14.384;2022-12-31T06:00:44;10.70;1.00
18779;DHT22;9518;51.720;14.384;2022-12-31T06:03:11;10.70;1.00
18779;DHT22;9518;51.720;14.384;2022-12-31T06:05:39;10.70;46.20
18779;DHT22;9518;51.720;14.384;2022-12-31T06:08:08;10.70;99.90
18779;DHT22;9518;51.720;14.384;2022-12-31T06:10:35;10.70;99.90
18779;DHT22;9518;51.720;14.384;2022-12-31T06:13:02;10.80;99.90
18779;DHT22;9518;51.720;14.384;2022-12-31T06:15:29;10.90;1.00
18779;DHT22;9518;51.720;14.384;2022-12-31T06:17:56;10.90;1.00
18779;DHT22;9518;51.720;14.384;2022-12-31T06:20:23;11.00;99.90
18779;DHT22;9518;51.720;14.384;2022-12-31T06:22:50;11.00;1.00
18779;DHT22;9518;51.720;14.384;2022-12-31T06:25:19;11.00;1.00
18779;DHT22;9518;51.720;14.384;2022-12-31T06:27:46;11.00;1.00
18779;DHT22;9518;51.720;14.384;2022-12-31T06:30:13;11.20;1.00
18779;DHT22;9518;51.720;14.384;2022-12-31T06:32:40;11.20;1.00
18779;DHT22;9518;51.720;14.384;2022-12-31T06:35:08;11.30;99.90
18779;DHT22;9518;51.720;14.384;2022-12-31T06:37:35;11.30;1.00
18779;DHT22;9518;51.720;14.384;2022-12-31T06:40:02;11.40;99.90
18779;DHT22;9518;51.720;14.384;2022-12-31T06:42:30;11.30;1.00
18779;DHT22;9518;51.720;14.384;2022-12-31T06:44:59;11.20;1.00
18779;DHT22;9518;51.720;14.384;2022-12-31T06:47:26;11.10;36.10
18779;DHT22;9518;51.720;14.384;2022-12-31T06:49:53;11.10;99.90
18779;DHT22;9518;51.720;14.384;2022-12-31T06:52:20;11.00;1.00
18779;DHT22;9518;51.720;14.384;2022-12-31T06:54:48;10.90;1.00
18779;DHT22;9518;51.720;14.384;2022-12-31T06:57:16;10.80;99.90
18779;DHT22;9518;51.720;14.384;2022-12-31T06:59:45;10.80;99.90
18779;DHT22;9518;51.720;14.384;2022-12-31T07:02:52;10.80;1.00
18779;DHT22;9518;51.720;14.384;2022-12-31T07:05:27;10.70;1.00
18779;DHT22;9518;51.720;14.384;2022-12-31T07:08:04;10.90;1.00
18779;DHT22;9518;51.720;14.384;2022-12-31T07:10:41;10.80;1.00
18779;DHT22;9518;51.720;14.384;2022-12-31T07:13:24;10.90;1.00
18779;DHT22;9518;51.720;14.384;2022-12-31T07:16:24;10.90;1.00
18779;DHT22;9518;51.720;14.384;2022-12-31T07:19:01;11.00;1.00
18779;DHT22;9518;51.720;14.384;2022-12-31T07:21:34;11.10;1.00
18779;DHT22;9518;51.720;14.384;2022-12-31T07:24:04;11.30;1.00
18779;DHT22;9518;51.720;14.384;2022-12-31T07:26:44;11.40;1.00
18779;DHT22;9518;51.720;14.384;2022-12-31T07:29:16;11.40;1.00
18779;DHT22;9518;51.720;14.384;2022-12-31T07:31:54;11.60;1.00
18779;DHT22;9518;51.720;14.384;2022-12-31T07:34:29;11.80;99.90
18779;DHT22;9518;51.720;14.384;2022-12-31T07:37:05;11.90;1.00
18779;DHT22;9518;51.720;14.384;2022-12-31T07:39:40;12.00;99.90
18779;DHT22;9518;51.720;14.384;2022-12-31T07:42:14;12.10;99.90
18779;DHT22;9518;51.720;14.384;2022-12-31T07:44:54;12.10;59.40
18779;DHT22;9518;51.720;14.384;2022-12-31T07:47:26;12.20;1.00
18779;DHT22;9518;51.720;14.384;2022-12-31T07:49:55;12.30;1.00
18779;DHT22;9518;51.720;14.384;2022-12-31T07:52:23;12.40;1.00
18779;DHT22;9518;51.720;14.384;2022-12-31T07:54:50;12.40;1.00
18779;DHT22;9518;51.720;14.384;2022-12-31T07:57:18;12.40;1.00
18779;DHT22;9518;51.720;14.384;2022-12-31T08:00:00;12.40;1.00
18779;DHT22;9518;51.720;14.384;2022-12-31T08:02:55;12.40;1.00
18779;DHT22;9518;51.720;14.384;2022-12-31T08:05:30;12.40;1.00
18779;DHT22;9518;51.720;14.384;2022-12-31T08:08:03;12.30;1.00
18779;DHT22;9518;51.720;14.384;2022-12-31T08:10:37;12.30;1.00
18779;DHT22;9518;51.720;14.384;2022-12-31T08:13:09;12.20;1.00
18779;DHT22;9518;51.720;14.384;2022-12-31T08:15:38;12.30;1.00
18779;DHT22;9518;51.720;14.384;2022-12-31T08:18:07;12.30;1.00
18779;DHT22;9518;51.720;14.384;2022-12-31T08:20:38;12.40;1.00
18779;DHT22;9518;51.720;14.384;2022-12-31T08:23:18;12.40;1.00
18779;DHT22;9518;51.720;14.384;2022-12-31T08:26:00;12.40;1.00
18779;DHT22;9518;51.720;14.384;2022-12-31T08:28:41;12.40;1.00
18779;DHT22;9518;51.720;14.384;2022-12-31T08:31:16;12.50;99.90
18779;DHT22;9518;51.720;14.384;2022-12-31T08:33:49;12.50;99.90
18779;DHT22;9518;51.720;14.384;2022-12-31T08:36:25;12.40;1.00
18779;DHT22;9518;51.720;14.384;2022-12-31T08:39:00;12.50;1.00
18779;DHT22;9518;51.720;14.384;2022-12-31T08:41:32;12.60;99.90
18779;DHT22;9518;51.720;14.384;2022-12-31T08:44:09;12.80;38.70
18779;DHT22;9518;51.720;14.384;2022-12-31T08:46:44;12.80;1.00
18779;DHT22;9518;51.720;14.384;2022-12-31T08:49:16;12.80;99.90
18779;DHT22;9518;51.720;14.384;2022-12-31T08:51:44;12.80;79.70
18779;DHT22;9518;51.720;14.384;2022-12-31T08:54:11;12.90;1.00
18779;DHT22;9518;51.720;14.384;2022-12-31T08:56:44;13.00;1.00
18779;DHT22;9518;51.720;14.384;2022-12-31T08:59:21;13.10;1.00
18779;DHT22;9518;51.720;14.384;2022-12-31T09:02:12;13.20;1.00
18779;DHT22;9518;51.720;14.384;2022-12-31T09:04:55;13.10;1.00
18779;DHT22;9518;51.720;14.384;2022-12-31T09:07:28;13.30;1.00
18779;DHT22;9518;51.720;14.384;2022-12-31T09:10:02;13.50;1.00
18779;DHT22;9518;51.720;14.384;2022-12-31T09:12:37;13.70;1.00
18779;DHT22;9518;51.720;14.384;2022-12-31T09:15:12;13.70;1.00
18779;DHT22;9518;51.720;14.384;2022-12-31T09:17:44;14.20;99.90
18779;DHT22;9518;51.720;14.384;2022-12-31T09:20:21;14.60;99.90
18779;DHT22;9518;51.720;14.384;2022-12-31T09:22:49;14.80;17.60
18779;DHT22;9518;51.720;14.384;2022-12-31T09:25:20;15.00;1.00
18779;DHT22;9518;51.720;14.384;2022-12-31T09:28:01;15.10;1.00
18779;DHT22;9518;51.720;14.384;2022-12-31T09:30:37;15.40;1.00
18779;DHT22;9518;51.720;14.384;2022-12-31T09:33:11;15.50;1.00
18779;DHT22;9518;51.720;14.384;2022-12-31T09:35:48;15.60;1.00
18779;DHT22;9518;51.720;14.384;2022-12-31T09:38:22;15.70;1.00
18779;DHT22;9518;51.720;14.384;2022-12-31T09:41:00;15.80;1.00
18779;DHT22;9518;51.720;14.384;2022-12-31T09:43:58;15.90;1.00
18779;DHT22;9518;51.720;14.384;2022-12-31T09:50:07;16.20;1.00
18779;DHT22;9518;51.720;14.384;2022-12-31T09:53:07;16.30;1.00
18779;DHT22;9518;51.720;14.384;2022-12-31T09:55:42;16.30;1.00
18779;DHT22;9518;51.720;14.384;2022-12-31T09:58:31;16.40;1.00
18779;DHT22;9518;51.720;14.384;2022-12-31T10:01:09;16.40;1.00
18779;DHT22;9518;51.720;14.384;2022-12-31T10:04:04;16.40;1.00
18779;DHT22;9518;51.720;14.384;2022-12-31T10:06:36;16.50;1.00
18779;DHT22;9518;51.720;14.384;2022-12-31T10:09:20;16.60;1.00
18779;DHT22;9518;51.720;14.384;2022-12-31T10:12:08;16.70;99.90
18779;DHT22;9518;51.720;14.384;2022-12-31T10:15:02;16.80;99.90
18779;DHT22;9518;51.720;14.384;2022-12-31T10:17:46;16.90;99.90
18779;DHT22;9518;51.720;14.384;2022-12-31T10:20:35;17.00;99.90
18779;DHT22;9518;51.720;14.384;2022-12-31T10:23:35;17.10;99.90
18779;DHT22;9518;51.720;14.384;2022-12-31T10:26:28;17.20;99.90
18779;DHT22;9518;51.720;14.384;2022-12-31T10:29:10;17.20;99.90
18779;DHT22;9518;51.720;14.384;2022-12-31T10:31:45;17.20;99.90
18779;DHT22;9518;51.720;14.384;2022-12-31T10:34:24;17.30;99.90
18779;DHT22;9518;51.720;14.384;2022-12-31T10:36:54;17.20;99.90
18779;DHT22;9518;51.720;14.384;2022-12-31T10:39:48;17.20;99.90
18779;DHT22;9518;51.720;14.384;2022-12-31T10:42:45;17.20;99.90
18779;DHT22;9518;51.720;14.384;2022-12-31T10:45:36;17.10;99.90
18779;DHT22;9518;51.720;14.384;2022-12-31T10:48:50;17.10;99.90
18779;DHT22;9518;51.720;14.384;2022-12-31T10:51:49;17.10;99.90
18779;DHT22;9518;51.720;14.384;2022-12-31T11:00:22;17.00;99.90
18779;DHT22;9518;51.720;14.384;2022-12-31T11:06:38;17.10;99.90
18779;DHT22;9518;51.720;14.384;2022-12-31T11:15:28;17.50;99.90
18779;DHT22;9518;51.720;14.384;2022-12-31T11:18:03;17.40;99.90
18779;DHT22;9518;51.720;14.384;2022-12-31T11:23:38;17.40;99.90
18779;DHT22;9518;51.720;14.384;2022-12-31T11:26:15;17.30;99.90
18779;DHT22;9518;51.720;14.384;2022-12-31T11:28:53;17.30;99.90
18779;DHT22;9518;51.720;14.384;2022-12-31T11:34:50;17.40;99.90
18779;DHT22;9518;51.720;14.384;2022-12-31T11:37:28;17.50;99.90
18779;DHT22;9518;51.720;14.384;2022-12-31T11:40:11;17.50;99.90
18779;DHT22;9518;51.720;14.384;2022-12-31T11:42:48;17.50;99.90
18779;DHT22;9518;51.720;14.384;2022-12-31T11:45:32;17.40;99.90
18779;DHT22;9518;51.720;14.384;2022-12-31T11:48:09;17.40;99.90
18779;DHT22;9518;51.720;14.384;2022-12-31T11:50:44;17.50;99.90
18779;DHT22;9518;51.720;14.384;2022-12-31T11:53:35;17.60;99.90
18779;DHT22;9518;51.720;14.384;2022-12-31T11:56:14;17.50;99.90
18779;DHT22;9518;51.720;14.384;2022-12-31T11:58:45;17.40;99.90
18779;DHT22;9518;51.720;14.384;2022-12-31T12:01:19;17.40;99.90
18779;DHT22;9518;51.720;14.384;2022-12-31T12:03:47;17.40;99.90
18779;DHT22;9518;51.720;14.384;2022-12-31T12:06:19;17.40;99.90
18779;DHT22;9518;51.720;14.384;2022-12-31T12:08:49;17.40;99.90
18779;DHT22;9518;51.720;14.384;2022-12-31T12:11:19;17.50;99.90
18779;DHT22;9518;51.720;14.384;2022-12-31T12:13:47;17.50;99.90
18779;DHT22;9518;51.720;14.384;2022-12-31T12:16:14;17.50;99.90
18779;DHT22;9518;51.720;14.384;2022-12-31T12:18:44;17.50;99.90
18779;DHT22;9518;51.720;14.384;2022-12-31T12:21:14;17.40;99.90
18779;DHT22;9518;51.720;14.384;2022-12-31T12:23:53;17.50;99.90
18779;DHT22;9518;51.720;14.384;2022-12-31T12:26:34;17.50;99.90
18779;DHT22;9518;51.720;14.384;2022-12-31T12:29:08;17.40;99.90
18779;DHT22;9518;51.720;14.384;2022-12-31T12:31:36;17.50;99.90
18779;DHT22;9518;51.720;14.384;2022-12-31T12:34:03;17.40;99.90
18779;DHT22;9518;51.720;14.384;2022-12-31T12:36:31;17.50;99.90
18779;DHT22;9518;51.720;14.384;2022-12-31T12:39:04;17.50;99.90
18779;DHT22;9518;51.720;14.384;2022-12-31T12:41:31;17.50;99.90
18779;DHT22;9518;51.720;14.384;2022-12-31T12:44:03;17.50;99.90
18779;DHT22;9518;51.720;14.384;2022-12-31T12:46:32;17.50;99.90
18779;DHT22;9518;51.720;14.384;2022-12-31T12:49:00;17.50;99.90
18779;DHT22;9518;51.720;14.384;2022-12-31T12:51:42;17.50;99.90
18779;DHT22;9518;51.720;14.384;2022-12-31T12:54:25;17.60;99.90
18779;DHT22;9518;51.720;14.384;2022-12-31T12:56:59;17.70;99.90
18779;DHT22;9518;51.720;14.384;2022-12-31T12:59:59;17.70;99.90
18779;DHT22;9518;51.720;14.384;2022-12-31T13:05:54;17.60;99.90
18779;DHT22;9518;51.720;14.384;2022-12-31T13:08:36;17.60;99.90
18779;DHT22;9518;51.720;14.384;2022-12-31T13:11:18;17.60;99.90
18779;DHT22;9518;51.720;14.384;2022-12-31T13:13:56;17.50;99.90
18779;DHT22;9518;51.720;14.384;2022-12-31T13:16:33;17.50;99.90
18779;DHT22;9518;51.720;14.384;2022-12-31T13:19:06;17.60;99.90
18779;DHT22;9518;51.720;14.384;2022-12-31T13:21:45;17.50;99.90
18779;DHT22;9518;51.720;14.384;2022-12-31T13:24:24;17.40;99.90
18779;DHT22;9518;51.720;14.384;2022-12-31T13:27:02;17.40;99.90
18779;DHT22;9518;51.720;14.384;2022-12-31T13:29:32;17.50;99.90
18779;DHT22;9518;51.720;14.384;2022-12-31T13:32:02;17.40;99.90
18779;DHT22;9518;51.720;14.384;2022-12-31T13:34:33;17.40;99.90
18779;DHT22;9518;51.720;14.384;2022-12-31T13:37:05;17.40;99.90
18779;DHT22;9518;51.720;14.384;2022-12-31T13:39:41;17.40;99.90
18779;DHT22;9518;51.720;14.384;2022-12-31T13:42:13;17.40;99.90
18779;DHT22;9518;51.720;14.384;2022-12-31T13:44:46;17.40;99.90
18779;DHT22;9518;51.720;14.384;2022-12-31T13:47:20;17.40;99.90
18779;DHT22;9518;51.720;14.384;2022-12-31T13:49:54;17.40;99.90
18779;DHT22;9518;51.720;14.384;2022-12-31T13:52:27;17.50;99.90
18779;DHT22;9518;51.720;14.384;2022-12-31T13:55:02;17.40;99.90
18779;DHT22;9518;51.720;14.384;2022-12-31T13:57:39;17.40;99.90
18779;DHT22;9518;51.720;14.384;2022-12-31T14:00:17;17.40;99.90
18779;DHT22;9518;51.720;14.384;2022-12-31T14:02:51;17.40;99.90
18779;DHT22;9518;51.720;14.384;2022-12-31T14:05:25;17.50;99.90
18779;DHT22;9518;51.720;14.384;2022-12-31T14:07:56;17.50;99.90
18779;DHT22;9518;51.720;14.384;2022-12-31T14:10:29;17.40;99.90
18779;DHT22;9518;51.720;14.384;2022-12-31T14:13:13;17.30;99.90
18779;DHT22;9518;51.720;14.384;2022-12-31T14:15:49;17.20;99.90
18779;DHT22;9518;51.720;14.384;2022-12-31T14:18:24;17.20;99.90
18779;DHT22;9518;51.720;14.384;2022-12-31T14:20:59;17.20;99.90
18779;DHT22;9518;51.720;14.384;2022-12-31T14:23:35;17.20;99.90
18779;DHT22;9518;51.720;14.384;2022-12-31T14:26:08;17.20;99.90
18779;DHT22;9518;51.720;14.384;2022-12-31T14:28:45;17.10;99.90
18779;DHT22;9518;51.720;14.384;2022-12-31T14:31:19;17.00;99.90
18779;DHT22;9518;51.720;14.384;2022-12-31T14:33:57;17.00;99.90
18779;DHT22;9518;51.720;14.384;2022-12-31T14:36:34;17.00;99.90
18779;DHT22;9518;51.720;14.384;2022-12-31T14:39:17;16.90;99.90
18779;DHT22;9518;51.720;14.384;2022-12-31T14:41:57;16.90;99.90
18779;DHT22;9518;51.720;14.384;2022-12-31T14:44:39;16.90;99.90
18779;DHT22;9518;51.720;14.384;2022-12-31T14:47:19;16.80;99.90
18779;DHT22;9518;51.720;14.384;2022-12-31T14:49:55;16.90;99.90
18779;DHT22;9518;51.720;14.384;2022-12-31T14:52:29;16.70;99.90
18779;DHT22;9518;51.720;14.384;2022-12-31T14:55:01;16.70;99.90
18779;DHT22;9518;51.720;14.384;2022-12-31T14:57:35;16.70;99.90
18779;DHT22;9518;51.720;14.384;2022-12-31T15:00:23;16.60;99.90
18779;DHT22;9518;51.720;14.384;2022-12-31T15:02:52;16.50;99.90
18779;DHT22;9518;51.720;14.384;2022-12-31T15:05:22;16.60;99.90
18779;DHT22;9518;51.720;14.384;2022-12-31T15:08:01;16.60;99.90
18779;DHT22;9518;51.720;14.384;2022-12-31T15:10:39;16.50;99.90
18779;DHT22;9518;51.720;14.384;2022-12-31T15:13:17;16.50;99.90
18779;DHT22;9518;51.720;14.384;2022-12-31T15:16:08;16.40;99.90
18779;DHT22;9518;51.720;14.384;2022-12-31T15:18:49;16.40;1.00
18779;DHT22;9518;51.720;14.384;2022-12-31T15:21:38;16.30;1.00
18779;DHT22;9518;51.720;14.384;2022-12-31T15:24:18;16.30;1.00
18779;DHT22;9518;51.720;14.384;2022-12-31T15:26:48;16.30;1.00
18779;DHT22;9518;51.720;14.384;2022-12-31T15:29:27;16.30;1.00
18779;DHT22;9518;51.720;14.384;2022-12-31T15:31:58;16.10;1.00
18779;DHT22;9518;51.720;14.384;2022-12-31T15:34:27;16.10;1.00
18779;DHT22;9518;51.720;14.384;2022-12-31T15:36:57;16.10;1.00
18779;DHT22;9518;51.720;14.384;2022-12-31T15:39:35;16.10;1.00
18779;DHT22;9518;51.720;14.384;2022-12-31T15:42:02;16.10;1.00
18779;DHT22;9518;51.720;14.384;2022-12-31T15:44:34;16.10;1.00
18779;DHT22;9518;51.720;14.384;2022-12-31T15:47:14;16.10;1.00
18779;DHT22;9518;51.720;14.384;2022-12-31T15:49:45;16.10;1.00
18779;DHT22;9518;51.720;14.384;2022-12-31T15:52:15;16.10;1.00
18779;DHT22;9518;51.720;14.384;2022-12-31T15:54:45;15.90;1.00
18779;DHT22;9518;51.720;14.384;2022-12-31T15:57:16;15.80;1.00
18779;DHT22;9518;51.720;14.384;2022-12-31T15:59:43;15.70;1.00
18779;DHT22;9518;51.720;14.384;2022-12-31T16:02:18;15.80;1.00
18779;DHT22;9518;51.720;14.384;2022-12-31T16:04:46;15.80;1.00
18779;DHT22;9518;51.720;14.384;2022-12-31T16:07:15;15.90;1.00
18779;DHT22;9518;51.720;14.384;2022-12-31T16:09:47;16.00;1.00
18779;DHT22;9518;51.720;14.384;2022-12-31T16:12:19;15.80;1.00
18779;DHT22;9518;51.720;14.384;2022-12-31T16:14:50;15.90;1.00
18779;DHT22;9518;51.720;14.384;2022-12-31T16:17:25;16.00;1.00
18779;DHT22;9518;51.720;14.384;2022-12-31T16:19:53;16.00;1.00
18779;DHT22;9518;51.720;14.384;2022-12-31T16:22:24;16.00;1.00
18779;DHT22;9518;51.720;14.384;2022-12-31T16:24:52;15.90;1.00
18779;DHT22;9518;51.720;14.384;2022-12-31T16:27:23;16.00;1.00
18779;DHT22;9518;51.720;14.384;2022-12-31T16:29:57;16.00;1.00
18779;DHT22;9518;51.720;14.384;2022-12-31T16:32:32;16.10;1.00
18779;DHT22;9518;51.720;14.384;2022-12-31T16:35:00;16.10;1.00
18779;DHT22;9518;51.720;14.384;2022-12-31T16:37:27;16.10;1.00
18779;DHT22;9518;51.720;14.384;2022-12-31T16:40:17;16.00;1.00
18779;DHT22;9518;51.720;14.384;2022-12-31T16:42:45;16.20;1.00
18779;DHT22;9518;51.720;14.384;2022-12-31T16:45:27;16.10;1.00
18779;DHT22;9518;51.720;14.384;2022-12-31T16:48:01;16.10;1.00
18779;DHT22;9518;51.720;14.384;2022-12-31T16:50:28;16.20;99.90
18779;DHT22;9518;51.720;14.384;2022-12-31T16:52:59;16.20;99.90